sensor_id;sensor_type;location;lat;lon;timestamp;pressure;altitude;pressure_sealevel;temperature;humidity
20394;BME280;10356;50.544;9.642;2023-06-14T00:00:43;97988.72;;;14.58;58.60
20394;BME280;10356;50.544;9.642;2023-06-14T00:03:10;97984.88;;;14.53;59.05
20394;BME280;10356;50.544;9.642;2023-06-14T00:05:37;97994.31;;;14.46;59.70
20394;BME280;10356;50.544;9.642;2023-06-14T00:08:07;97992.97;;;14.42;59.51
20394;BME280;10356;50.544;9.642;2023-06-14T00:10:34;97986.66;;;14.35;59.58
20394;BME280;10356;50.544;9.642;2023-06-14T00:13:00;97995.50;;;14.34;59.31
20394;BME280;10356;50.544;9.642;2023-06-14T00:15:27;97995.78;;;14.30;59.35
20394;BME280;10356;50.544;9.642;2023-06-14T00:17:54;97996.78;;;14.29;59.46
20394;BME280;10356;50.544;9.642;2023-06-14T00:20:21;97993.44;;;14.27;59.60
20394;BME280;10356;50.544;9.642;2023-06-14T00:22:48;97994.72;;;14.23;59.66
20394;BME280;10356;50.544;9.642;2023-06-14T00:25:16;97994.22;;;14.10;62.38
20394;BME280;10356;50.544;9.642;2023-06-14T00:27:43;97986.97;;;14.04;62.87
20394;BME280;10356;50.544;9.642;2023-06-14T00:30:10;97995.81;;;14.03;62.98
20394;BME280;10356;50.544;9.642;2023-06-14T00:32:37;97992.09;;;13.96;63.02
20394;BME280;10356;50.544;9.642;2023-06-14T00:35:04;97995.97;;;13.92;63.67
20394;BME280;10356;50.544;9.642;2023-06-14T00:37:31;97991.47;;;13.85;64.16
20394;BME280;10356;50.544;9.642;2023-06-14T00:39:57;97990.94;;;13.81;64.16
20394;BME280;10356;50.544;9.642;2023-06-14T00:42:26;97986.00;;;13.78;65.14
20394;BME280;10356;50.544;9.642;2023-06-14T00:44:53;97992.50;;;13.74;64.67
20394;BME280;10356;50.544;9.642;2023-06-14T00:47:20;97985.88;;;13.70;66.79
20394;BME280;10356;50.544;9.642;2023-06-14T00:49:48;97985.75;;;13.72;66.39
20394;BME280;10356;50.544;9.642;2023-06-14T00:52:16;97992.38;;;13.66;65.61
20394;BME280;10356;50.544;9.642;2023-06-14T00:54:43;97996.69;;;13.58;64.99
20394;BME280;10356;50.544;9.642;2023-06-14T00:57:10;97990.66;;;13.57;64.97
20394;BME280;10356;50.544;9.642;2023-06-14T00:59:42;97992.59;;;13.55;65.22
20394;BME280;10356;50.544;9.642;2023-06-14T01:02:09;97988.44;;;13.53;64.58
20394;BME280;10356;50.544;9.642;2023-06-14T01:04:36;97991.91;;;13.53;64.58
20394;BME280;10356;50.544;9.642;2023-06-14T01:07:09;98001.97;;;13.48;67.54
20394;BME280;10356;50.544;9.642;2023-06-14T01:09:46;97998.66;;;13.46;66.68
20394;BME280;10356;50.544;9.642;2023-06-14T01:12:20;97997.50;;;13.58;66.33
20394;BME280;10356;50.544;9.642;2023-06-14T01:14:51;97999.19;;;13.49;67.14
20394;BME280;10356;50.544;9.642;2023-06-14T01:17:21;98000.84;;;13.51;67.27
20394;BME280;10356;50.544;9.642;2023-06-14T01:19:50;97998.09;;;13.52;67.15
20394;BME280;10356;50.544;9.642;2023-06-14T01:22:23;97999.75;;;13.53;65.83
20394;BME280;10356;50.544;9.642;2023-06-14T01:24:52;97998.34;;;13.59;65.56
20394;BME280;10356;50.544;9.642;2023-06-14T01:27:21;98001.38;;;13.54;67.53
20394;BME280;10356;50.544;9.642;2023-06-14T01:29:49;97997.41;;;13.50;66.32
20394;BME280;10356;50.544;9.642;2023-06-14T01:32:17;98001.38;;;13.54;65.48
20394;BME280;10356;50.544;9.642;2023-06-14T01:34:44;98007.41;;;13.64;64.25
20394;BME280;10356;50.544;9.642;2023-06-14T01:37:11;97999.97;;;13.60;65.61
20394;BME280;10356;50.544;9.642;2023-06-14T01:39:39;97998.59;;;13.65;64.71
20394;BME280;10356;50.544;9.642;2023-06-14T01:42:07;97996.84;;;13.56;66.33
20394;BME280;10356;50.544;9.642;2023-06-14T01:44:34;97997.81;;;13.55;65.28
20394;BME280;10356;50.544;9.642;2023-06-14T01:47:01;97987.63;;;13.52;65.44
20394;BME280;10356;50.544;9.642;2023-06-14T01:49:27;97997.72;;;13.47;65.67
20394;BME280;10356;50.544;9.642;2023-06-14T01:51:54;98000.91;;;13.41;65.90
20394;BME280;10356;50.544;9.642;2023-06-14T01:54:20;98002.72;;;13.31;66.43
20394;BME280;10356;50.544;9.642;2023-06-14T01:56:48;97999.00;;;13.24;68.47
20394;BME280;10356;50.544;9.642;2023-06-14T01:59:15;98001.50;;;13.16;68.58
20394;BME280;10356;50.544;9.642;2023-06-14T02:01:42;97989.41;;;13.15;67.08
20394;BME280;10356;50.544;9.642;2023-06-14T02:04:08;97991.59;;;13.10;68.55
20394;BME280;10356;50.544;9.642;2023-06-14T02:06:35;97986.50;;;13.08;69.45
20394;BME280;10356;50.544;9.642;2023-06-14T02:09:02;97998.44;;;13.01;70.91
20394;BME280;10356;50.544;9.642;2023-06-14T02:11:28;97993.09;;;12.93;70.97
20394;BME280;10356;50.544;9.642;2023-06-14T02:13:55;97998.34;;;12.84;71.15
20394;BME280;10356;50.544;9.642;2023-06-14T02:16:23;98002.19;;;12.80;71.02
20394;BME280;10356;50.544;9.642;2023-06-14T02:18:49;97999.84;;;12.67;71.27
20394;BME280;10356;50.544;9.642;2023-06-14T02:21:16;97993.78;;;12.66;70.85
20394;BME280;10356;50.544;9.642;2023-06-14T02:23:43;98002.88;;;12.62;70.67
20394;BME280;10356;50.544;9.642;2023-06-14T02:26:10;97999.47;;;12.62;70.34
20394;BME280;10356;50.544;9.642;2023-06-14T02:28:36;98007.56;;;12.59;70.26
20394;BME280;10356;50.544;9.642;2023-06-14T02:31:03;98008.38;;;12.59;70.17
20394;BME280;10356;50.544;9.642;2023-06-14T02:33:31;98012.09;;;12.66;69.72
20394;BME280;10356;50.544;9.642;2023-06-14T02:35:57;98008.38;;;12.69;69.34
20394;BME280;10356;50.544;9.642;2023-06-14T02:38:24;98007.97;;;12.74;68.94
20394;BME280;10356;50.544;9.642;2023-06-14T02:40:50;98007.00;;;12.75;69.12
20394;BME280;10356;50.544;9.642;2023-06-14T02:43:17;98012.91;;;12.77;68.92
20394;BME280;10356;50.544;9.642;2023-06-14T02:45:43;98024.06;;;12.79;69.05
20394;BME280;10356;50.544;9.642;2023-06-14T02:48:09;98011.81;;;12.79;69.07
20394;BME280;10356;50.544;9.642;2023-06-14T02:50:37;98019.13;;;12.76;69.16
20394;BME280;10356;50.544;9.642;2023-06-14T02:53:04;98019.28;;;12.74;69.60
20394;BME280;10356;50.544;9.642;2023-06-14T02:55:31;98015.81;;;12.74;69.35
20394;BME280;10356;50.544;9.642;2023-06-14T02:57:58;98030.13;;;12.70;69.70
20394;BME280;10356;50.544;9.642;2023-06-14T03:00:24;98020.75;;;12.67;69.81
20394;BME280;10356;50.544;9.642;2023-06-14T03:02:51;98020.91;;;12.65;69.96
20394;BME280;10356;50.544;9.642;2023-06-14T03:05:19;98026.69;;;12.59;70.27
20394;BME280;10356;50.544;9.642;2023-06-14T03:07:48;98038.63;;;12.52;71.71
20394;BME280;10356;50.544;9.642;2023-06-14T03:10:15;98034.63;;;12.48;72.12
20394;BME280;10356;50.544;9.642;2023-06-14T03:12:42;98041.09;;;12.44;72.19
20394;BME280;10356;50.544;9.642;2023-06-14T03:15:09;98038.63;;;12.43;72.31
20394;BME280;10356;50.544;9.642;2023-06-14T03:17:36;98042.06;;;12.43;72.28
20394;BME280;10356;50.544;9.642;2023-06-14T03:20:05;98041.63;;;12.38;72.56
20394;BME280;10356;50.544;9.642;2023-06-14T03:22:31;98044.13;;;12.40;72.48
20394;BME280;10356;50.544;9.642;2023-06-14T03:25:00;98039.22;;;12.56;71.99
20394;BME280;10356;50.544;9.642;2023-06-14T03:27:29;98045.25;;;12.56;71.95
20394;BME280;10356;50.544;9.642;2023-06-14T03:29:56;98043.59;;;12.55;72.04
20394;BME280;10356;50.544;9.642;2023-06-14T03:32:22;98051.84;;;12.60;71.88
20394;BME280;10356;50.544;9.642;2023-06-14T03:34:49;98052.69;;;12.61;72.00
20394;BME280;10356;50.544;9.642;2023-06-14T03:37:16;98062.72;;;12.65;71.95
20394;BME280;10356;50.544;9.642;2023-06-14T03:39:42;98063.44;;;12.68;72.04
20394;BME280;10356;50.544;9.642;2023-06-14T03:42:13;98068.66;;;12.68;72.19
20394;BME280;10356;50.544;9.642;2023-06-14T03:44:40;98070.72;;;12.74;72.07
20394;BME280;10356;50.544;9.642;2023-06-14T03:47:06;98073.03;;;12.77;72.08
20394;BME280;10356;50.544;9.642;2023-06-14T03:49:33;98078.59;;;12.93;71.75
20394;BME280;10356;50.544;9.642;2023-06-14T03:52:00;98073.19;;;13.42;70.49
20394;BME280;10356;50.544;9.642;2023-06-14T03:54:27;98070.03;;;14.49;66.34
20394;BME280;10356;50.544;9.642;2023-06-14T03:56:54;98080.78;;;15.43;61.88
20394;BME280;10356;50.544;9.642;2023-06-14T03:59:23;98080.31;;;16.33;58.42
20394;BME280;10356;50.544;9.642;2023-06-14T04:01:51;98086.94;;;17.03;55.83
20394;BME280;10356;50.544;9.642;2023-06-14T04:04:18;98086.16;;;17.50;54.21
20394;BME280;10356;50.544;9.642;2023-06-14T04:06:46;98086.38;;;18.12;53.14
20394;BME280;10356;50.544;9.642;2023-06-14T04:09:13;98082.44;;;18.47;50.75
20394;BME280;10356;50.544;9.642;2023-06-14T04:11:40;98083.09;;;18.79;49.45
20394;BME280;10356;50.544;9.642;2023-06-14T04:14:06;98094.63;;;18.86;48.52
20394;BME280;10356;50.544;9.642;2023-06-14T04:16:34;98095.56;;;19.16;47.97
20394;BME280;10356;50.544;9.642;2023-06-14T04:19:00;98104.53;;;19.07;48.23
20394;BME280;10356;50.544;9.642;2023-06-14T04:21:27;98110.38;;;19.48;47.01
20394;BME280;10356;50.544;9.642;2023-06-14T04:23:54;98106.19;;;20.05;46.02
20394;BME280;10356;50.544;9.642;2023-06-14T04:26:21;98108.78;;;20.28;45.27
20394;BME280;10356;50.544;9.642;2023-06-14T04:28:49;98115.44;;;19.57;46.83
20394;BME280;10356;50.544;9.642;2023-06-14T04:31:15;98114.47;;;20.02;46.03
20394;BME280;10356;50.544;9.642;2023-06-14T04:33:43;98107.06;;;19.46;46.76
20394;BME280;10356;50.544;9.642;2023-06-14T04:36:11;98110.00;;;19.88;46.46
20394;BME280;10356;50.544;9.642;2023-06-14T04:38:38;98114.84;;;19.99;45.37
20394;BME280;10356;50.544;9.642;2023-06-14T04:41:05;98121.13;;;19.83;46.65
20394;BME280;10356;50.544;9.642;2023-06-14T04:43:32;98126.25;;;20.14;45.67
20394;BME280;10356;50.544;9.642;2023-06-14T04:46:03;98118.00;;;19.65;46.67
20394;BME280;10356;50.544;9.642;2023-06-14T04:48:30;98115.94;;;18.38;50.26
20394;BME280;10356;50.544;9.642;2023-06-14T04:50:59;98114.44;;;17.40;52.57
20394;BME280;10356;50.544;9.642;2023-06-14T04:53:25;98121.88;;;16.71;55.49
20394;BME280;10356;50.544;9.642;2023-06-14T04:55:54;98122.28;;;15.83;58.80
20394;BME280;10356;50.544;9.642;2023-06-14T04:58:20;98118.66;;;15.23;62.41
20394;BME280;10356;50.544;9.642;2023-06-14T05:00:47;98113.94;;;15.27;62.34
20394;BME280;10356;50.544;9.642;2023-06-14T05:03:13;98117.53;;;15.08;63.18
20394;BME280;10356;50.544;9.642;2023-06-14T05:05:40;98115.50;;;14.84;65.00
20394;BME280;10356;50.544;9.642;2023-06-14T05:08:08;98118.56;;;14.80;64.64
20394;BME280;10356;50.544;9.642;2023-06-14T05:10:35;98121.25;;;14.70;65.42
20394;BME280;10356;50.544;9.642;2023-06-14T05:13:01;98120.88;;;14.83;64.97
20394;BME280;10356;50.544;9.642;2023-06-14T05:15:28;98125.59;;;14.79;65.04
20394;BME280;10356;50.544;9.642;2023-06-14T05:17:55;98123.41;;;14.75;65.69
20394;BME280;10356;50.544;9.642;2023-06-14T05:20:22;98128.06;;;14.63;66.63
20394;BME280;10356;50.544;9.642;2023-06-14T05:22:50;98118.56;;;14.80;65.93
20394;BME280;10356;50.544;9.642;2023-06-14T05:25:19;98120.53;;;14.78;66.20
20394;BME280;10356;50.544;9.642;2023-06-14T05:27:46;98122.16;;;14.79;65.20
20394;BME280;10356;50.544;9.642;2023-06-14T05:30:13;98112.06;;;14.84;65.81
20394;BME280;10356;50.544;9.642;2023-06-14T05:32:40;98125.28;;;14.65;66.09
20394;BME280;10356;50.544;9.642;2023-06-14T05:35:07;98118.09;;;14.67;65.96
20394;BME280;10356;50.544;9.642;2023-06-14T05:37:34;98126.38;;;15.07;65.34
20394;BME280;10356;50.544;9.642;2023-06-14T05:40:00;98118.88;;;15.12;65.28
20394;BME280;10356;50.544;9.642;2023-06-14T05:42:30;98128.41;;;15.31;64.17
20394;BME280;10356;50.544;9.642;2023-06-14T05:44:57;98124.84;;;15.49;63.75
20394;BME280;10356;50.544;9.642;2023-06-14T05:47:23;98130.88;;;15.67;62.65
20394;BME280;10356;50.544;9.642;2023-06-14T05:49:51;98120.47;;;15.83;62.37
20394;BME280;10356;50.544;9.642;2023-06-14T05:52:17;98125.78;;;15.91;61.61
20394;BME280;10356;50.544;9.642;2023-06-14T05:54:43;98128.03;;;15.86;62.22
20394;BME280;10356;50.544;9.642;2023-06-14T05:57:10;98125.00;;;15.99;62.10
20394;BME280;10356;50.544;9.642;2023-06-14T05:59:38;98129.84;;;16.12;60.76
20394;BME280;10356;50.544;9.642;2023-06-14T06:02:05;98135.34;;;16.34;61.56
20394;BME280;10356;50.544;9.642;2023-06-14T06:04:32;98131.19;;;16.16;60.29
20394;BME280;10356;50.544;9.642;2023-06-14T06:06:58;98121.41;;;16.34;59.78
20394;BME280;10356;50.544;9.642;2023-06-14T06:09:25;98132.88;;;16.33;61.04
20394;BME280;10356;50.544;9.642;2023-06-14T06:11:51;98125.53;;;16.78;59.17
20394;BME280;10356;50.544;9.642;2023-06-14T06:14:17;98126.56;;;17.09;58.40
20394;BME280;10356;50.544;9.642;2023-06-14T06:16:45;98124.53;;;16.79;58.12
20394;BME280;10356;50.544;9.642;2023-06-14T06:19:12;98124.88;;;16.76;58.95
20394;BME280;10356;50.544;9.642;2023-06-14T06:21:38;98125.75;;;16.93;57.76
20394;BME280;10356;50.544;9.642;2023-06-14T06:24:06;98128.53;;;16.99;57.85
20394;BME280;10356;50.544;9.642;2023-06-14T06:26:32;98133.16;;;17.05;56.42
20394;BME280;10356;50.544;9.642;2023-06-14T06:28:59;98137.13;;;17.25;56.19
20394;BME280;10356;50.544;9.642;2023-06-14T06:31:26;98133.22;;;17.78;54.74
20394;BME280;10356;50.544;9.642;2023-06-14T06:33:54;98131.53;;;17.93;54.07
20394;BME280;10356;50.544;9.642;2023-06-14T06:36:20;98128.41;;;18.05;53.75
20394;BME280;10356;50.544;9.642;2023-06-14T06:38:47;98139.00;;;17.49;55.69
20394;BME280;10356;50.544;9.642;2023-06-14T06:41:14;98138.97;;;17.89;54.31
20394;BME280;10356;50.544;9.642;2023-06-14T06:43:40;98142.59;;;17.80;54.72
20394;BME280;10356;50.544;9.642;2023-06-14T06:46:07;98134.69;;;17.88;55.22
20394;BME280;10356;50.544;9.642;2023-06-14T06:48:33;98145.66;;;18.24;53.00
20394;BME280;10356;50.544;9.642;2023-06-14T06:51:01;98144.72;;;18.01;53.98
20394;BME280;10356;50.544;9.642;2023-06-14T06:53:28;98160.06;;;17.97;52.75
20394;BME280;10356;50.544;9.642;2023-06-14T06:55:54;98150.31;;;18.14;52.80
20394;BME280;10356;50.544;9.642;2023-06-14T06:58:21;98149.00;;;18.65;53.67
20394;BME280;10356;50.544;9.642;2023-06-14T07:00:47;98160.06;;;18.68;52.43
20394;BME280;10356;50.544;9.642;2023-06-14T07:03:14;98159.47;;;18.81;52.99
20394;BME280;10356;50.544;9.642;2023-06-14T07:05:40;98159.16;;;18.29;54.14
20394;BME280;10356;50.544;9.642;2023-06-14T07:08:08;98169.75;;;18.76;52.77
20394;BME280;10356;50.544;9.642;2023-06-14T07:10:35;98167.44;;;18.26;52.53
20394;BME280;10356;50.544;9.642;2023-06-14T07:13:02;98174.91;;;18.61;52.30
20394;BME280;10356;50.544;9.642;2023-06-14T07:15:29;98167.56;;;18.79;52.24
20394;BME280;10356;50.544;9.642;2023-06-14T07:17:56;98170.34;;;19.16;50.94
20394;BME280;10356;50.544;9.642;2023-06-14T07:20:24;98168.22;;;19.12;51.38
20394;BME280;10356;50.544;9.642;2023-06-14T07:22:51;98172.69;;;19.11;49.72
20394;BME280;10356;50.544;9.642;2023-06-14T07:25:19;98172.28;;;19.53;50.05
20394;BME280;10356;50.544;9.642;2023-06-14T07:27:47;98176.41;;;19.33;50.75
20394;BME280;10356;50.544;9.642;2023-06-14T07:30:14;98181.13;;;19.07;50.20
20394;BME280;10356;50.544;9.642;2023-06-14T07:32:40;98176.44;;;19.48;48.07
20394;BME280;10356;50.544;9.642;2023-06-14T07:35:07;98172.22;;;19.39;49.56
20394;BME280;10356;50.544;9.642;2023-06-14T07:37:34;98174.69;;;19.40;49.89
20394;BME280;10356;50.544;9.642;2023-06-14T07:40:01;98172.59;;;19.95;48.64
20394;BME280;10356;50.544;9.642;2023-06-14T07:42:33;98173.31;;;20.04;47.89
20394;BME280;10356;50.544;9.642;2023-06-14T07:45:00;98168.50;;;19.48;49.53
20394;BME280;10356;50.544;9.642;2023-06-14T07:47:26;98181.91;;;19.46;48.42
20394;BME280;10356;50.544;9.642;2023-06-14T07:49:53;98171.56;;;19.37;49.24
20394;BME280;10356;50.544;9.642;2023-06-14T07:52:19;98175.06;;;19.97;47.99
20394;BME280;10356;50.544;9.642;2023-06-14T07:54:45;98172.06;;;20.15;45.82
20394;BME280;10356;50.544;9.642;2023-06-14T07:57:12;98185.28;;;20.15;45.95
20394;BME280;10356;50.544;9.642;2023-06-14T07:59:40;98177.66;;;20.34;45.45
20394;BME280;10356;50.544;9.642;2023-06-14T08:02:06;98170.13;;;20.46;46.07
20394;BME280;10356;50.544;9.642;2023-06-14T08:04:33;98173.66;;;20.38;45.57
20394;BME280;10356;50.544;9.642;2023-06-14T08:06:59;98169.59;;;19.76;47.41
20394;BME280;10356;50.544;9.642;2023-06-14T08:09:27;98166.84;;;20.06;46.13
20394;BME280;10356;50.544;9.642;2023-06-14T08:11:54;98169.53;;;20.65;45.15
20394;BME280;10356;50.544;9.642;2023-06-14T08:14:20;98165.53;;;20.54;47.04
20394;BME280;10356;50.544;9.642;2023-06-14T08:16:48;98167.44;;;21.04;45.36
20394;BME280;10356;50.544;9.642;2023-06-14T08:19:15;98166.00;;;21.23;43.68
20394;BME280;10356;50.544;9.642;2023-06-14T08:21:42;98171.63;;;20.99;44.81
20394;BME280;10356;50.544;9.642;2023-06-14T08:24:08;98180.88;;;21.24;45.13
20394;BME280;10356;50.544;9.642;2023-06-14T08:26:35;98170.69;;;21.21;44.08
20394;BME280;10356;50.544;9.642;2023-06-14T08:29:01;98174.25;;;21.91;42.49
20394;BME280;10356;50.544;9.642;2023-06-14T08:31:28;98170.72;;;21.27;43.11
20394;BME280;10356;50.544;9.642;2023-06-14T08:33:56;98171.19;;;21.31;44.78
20394;BME280;10356;50.544;9.642;2023-06-14T08:36:22;98170.69;;;22.05;44.01
20394;BME280;10356;50.544;9.642;2023-06-14T08:38:49;98179.53;;;21.91;42.58
20394;BME280;10356;50.544;9.642;2023-06-14T08:41:21;98170.94;;;21.47;43.06
20394;BME280;10356;50.544;9.642;2023-06-14T08:43:48;98173.84;;;21.31;43.55
20394;BME280;10356;50.544;9.642;2023-06-14T08:46:17;98174.00;;;21.71;41.55
20394;BME280;10356;50.544;9.642;2023-06-14T08:48:46;98175.22;;;21.48;42.76
20394;BME280;10356;50.544;9.642;2023-06-14T08:51:18;98166.41;;;21.05;42.95
20394;BME280;10356;50.544;9.642;2023-06-14T08:53:50;98176.22;;;20.46;44.09
20394;BME280;10356;50.544;9.642;2023-06-14T08:56:18;98166.69;;;20.81;44.12
20394;BME280;10356;50.544;9.642;2023-06-14T08:58:46;98172.56;;;20.47;45.34
20394;BME280;10356;50.544;9.642;2023-06-14T09:01:13;98174.66;;;20.23;45.10
20394;BME280;10356;50.544;9.642;2023-06-14T09:03:42;98180.66;;;20.89;44.37
20394;BME280;10356;50.544;9.642;2023-06-14T09:06:10;98178.28;;;21.09;44.66
20394;BME280;10356;50.544;9.642;2023-06-14T09:08:41;98173.88;;;21.37;43.90
20394;BME280;10356;50.544;9.642;2023-06-14T09:11:10;98178.41;;;20.86;44.10
20394;BME280;10356;50.544;9.642;2023-06-14T09:13:37;98186.25;;;20.65;44.79
20394;BME280;10356;50.544;9.642;2023-06-14T09:16:04;98173.97;;;21.65;43.94
20394;BME280;10356;50.544;9.642;2023-06-14T09:18:35;98180.75;;;22.16;42.49
20394;BME280;10356;50.544;9.642;2023-06-14T09:21:02;98186.59;;;21.63;42.58
20394;BME280;10356;50.544;9.642;2023-06-14T09:23:28;98192.91;;;21.41;42.92
20394;BME280;10356;50.544;9.642;2023-06-14T09:25:56;98191.13;;;21.48;43.25
20394;BME280;10356;50.544;9.642;2023-06-14T09:28:27;98182.63;;;22.22;42.94
20394;BME280;10356;50.544;9.642;2023-06-14T09:30:53;98191.13;;;22.11;42.36
20394;BME280;10356;50.544;9.642;2023-06-14T09:33:20;98196.47;;;21.90;42.14
20394;BME280;10356;50.544;9.642;2023-06-14T09:35:51;98187.31;;;22.48;41.10
20394;BME280;10356;50.544;9.642;2023-06-14T09:38:17;98191.06;;;22.32;40.31
20394;BME280;10356;50.544;9.642;2023-06-14T09:40:44;98190.78;;;22.83;40.36
20394;BME280;10356;50.544;9.642;2023-06-14T09:43:11;98183.88;;;22.95;40.89
20394;BME280;10356;50.544;9.642;2023-06-14T09:45:38;98200.56;;;22.76;40.47
20394;BME280;10356;50.544;9.642;2023-06-14T09:48:06;98197.75;;;22.84;41.49
20394;BME280;10356;50.544;9.642;2023-06-14T09:50:33;98194.19;;;23.17;41.29
20394;BME280;10356;50.544;9.642;2023-06-14T09:53:02;98202.00;;;23.25;40.29
20394;BME280;10356;50.544;9.642;2023-06-14T09:55:30;98199.53;;;23.24;39.49
20394;BME280;10356;50.544;9.642;2023-06-14T09:58:00;98208.69;;;22.12;40.18
20394;BME280;10356;50.544;9.642;2023-06-14T10:00:32;98205.09;;;22.20;41.13
20394;BME280;10356;50.544;9.642;2023-06-14T10:03:00;98202.84;;;22.51;42.32
20394;BME280;10356;50.544;9.642;2023-06-14T10:05:29;98202.75;;;22.10;42.48
20394;BME280;10356;50.544;9.642;2023-06-14T10:08:04;98196.81;;;21.66;43.03
20394;BME280;10356;50.544;9.642;2023-06-14T10:10:31;98199.38;;;21.17;43.85
20394;BME280;10356;50.544;9.642;2023-06-14T10:12:57;98201.50;;;21.64;43.82
20394;BME280;10356;50.544;9.642;2023-06-14T10:15:30;98189.28;;;21.84;43.47
20394;BME280;10356;50.544;9.642;2023-06-14T10:18:04;98194.13;;;22.29;42.44
20394;BME280;10356;50.544;9.642;2023-06-14T10:20:38;98193.69;;;22.26;43.10
20394;BME280;10356;50.544;9.642;2023-06-14T10:23:11;98197.72;;;21.94;42.99
20394;BME280;10356;50.544;9.642;2023-06-14T10:25:39;98189.38;;;21.76;42.57
20394;BME280;10356;50.544;9.642;2023-06-14T10:28:16;98185.84;;;21.90;43.38
20394;BME280;10356;50.544;9.642;2023-06-14T10:31:05;98183.28;;;21.19;43.57
20394;BME280;10356;50.544;9.642;2023-06-14T10:33:34;98184.44;;;21.52;43.83
20394;BME280;10356;50.544;9.642;2023-06-14T10:36:24;98175.63;;;22.15;43.22
20394;BME280;10356;50.544;9.642;2023-06-14T10:39:00;98183.84;;;22.20;41.85
20394;BME280;10356;50.544;9.642;2023-06-14T10:41:28;98173.78;;;23.24;40.24
20394;BME280;10356;50.544;9.642;2023-06-14T10:46:52;98178.97;;;22.92;42.13
20394;BME280;10356;50.544;9.642;2023-06-14T10:49:36;98177.44;;;22.08;41.72
20394;BME280;10356;50.544;9.642;2023-06-14T10:52:08;98173.38;;;22.12;42.84
20394;BME280;10356;50.544;9.642;2023-06-14T10:55:01;98190.94;;;22.13;42.81
20394;BME280;10356;50.544;9.642;2023-06-14T10:57:29;98188.56;;;22.24;41.71
20394;BME280;10356;50.544;9.642;2023-06-14T10:59:57;98180.31;;;22.13;41.35
20394;BME280;10356;50.544;9.642;2023-06-14T11:05:42;98177.84;;;22.73;40.55
20394;BME280;10356;50.544;9.642;2023-06-14T11:08:33;98200.34;;;23.18;40.36
20394;BME280;10356;50.544;9.642;2023-06-14T11:11:07;98167.56;;;23.04;40.88
20394;BME280;10356;50.544;9.642;2023-06-14T11:13:34;98183.16;;;23.14;40.48
20394;BME280;10356;50.544;9.642;2023-06-14T11:16:10;98168.94;;;23.41;39.89
20394;BME280;10356;50.544;9.642;2023-06-14T11:18:37;98177.09;;;23.33;40.47
20394;BME280;10356;50.544;9.642;2023-06-14T11:21:05;98184.00;;;23.21;39.32
20394;BME280;10356;50.544;9.642;2023-06-14T11:23:31;98160.97;;;23.74;38.92
20394;BME280;10356;50.544;9.642;2023-06-14T11:25:58;98174.28;;;23.80;37.94
20394;BME280;10356;50.544;9.642;2023-06-14T11:28:24;98172.44;;;23.74;37.42
20394;BME280;10356;50.544;9.642;2023-06-14T11:30:59;98168.88;;;23.28;39.02
20394;BME280;10356;50.544;9.642;2023-06-14T11:33:26;98162.66;;;23.08;40.30
20394;BME280;10356;50.544;9.642;2023-06-14T11:35:52;98171.00;;;23.52;37.82
20394;BME280;10356;50.544;9.642;2023-06-14T11:38:20;98169.63;;;23.09;38.86
20394;BME280;10356;50.544;9.642;2023-06-14T11:40:47;98173.03;;;23.37;38.72
20394;BME280;10356;50.544;9.642;2023-06-14T11:43:13;98168.19;;;24.12;39.99
20394;BME280;10356;50.544;9.642;2023-06-14T11:45:40;98173.03;;;24.55;37.08
20394;BME280;10356;50.544;9.642;2023-06-14T11:48:07;98168.41;;;24.17;37.20
20394;BME280;10356;50.544;9.642;2023-06-14T11:50:37;98166.44;;;24.77;37.60
20394;BME280;10356;50.544;9.642;2023-06-14T11:53:04;98176.50;;;24.62;36.47
20394;BME280;10356;50.544;9.642;2023-06-14T11:55:36;98165.28;;;23.88;37.73
20394;BME280;10356;50.544;9.642;2023-06-14T11:58:04;98161.38;;;23.84;37.72
20394;BME280;10356;50.544;9.642;2023-06-14T12:00:31;98156.41;;;24.66;37.05
20394;BME280;10356;50.544;9.642;2023-06-14T12:02:57;98166.78;;;24.87;36.49
20394;BME280;10356;50.544;9.642;2023-06-14T12:05:25;98163.16;;;24.68;37.97
20394;BME280;10356;50.544;9.642;2023-06-14T12:07:58;98168.50;;;24.62;36.73
20394;BME280;10356;50.544;9.642;2023-06-14T12:10:26;98169.66;;;24.92;36.23
20394;BME280;10356;50.544;9.642;2023-06-14T12:12:56;98162.13;;;24.63;35.68
20394;BME280;10356;50.544;9.642;2023-06-14T12:15:23;98161.06;;;24.83;36.50
20394;BME280;10356;50.544;9.642;2023-06-14T12:17:49;98160.47;;;24.81;35.71
20394;BME280;10356;50.544;9.642;2023-06-14T12:20:18;98159.41;;;24.89;34.73
20394;BME280;10356;50.544;9.642;2023-06-14T12:22:50;98155.59;;;25.16;34.21
20394;BME280;10356;50.544;9.642;2023-06-14T12:25:26;98156.75;;;25.64;34.57
20394;BME280;10356;50.544;9.642;2023-06-14T12:27:55;98157.78;;;24.88;35.67
20394;BME280;10356;50.544;9.642;2023-06-14T12:30:21;98163.41;;;24.41;36.12
20394;BME280;10356;50.544;9.642;2023-06-14T12:32:48;98159.75;;;23.70;37.04
20394;BME280;10356;50.544;9.642;2023-06-14T12:35:16;98158.31;;;23.61;36.63
20394;BME280;10356;50.544;9.642;2023-06-14T12:37:43;98159.97;;;23.68;35.69
20394;BME280;10356;50.544;9.642;2023-06-14T12:40:11;98158.78;;;24.03;36.38
20394;BME280;10356;50.544;9.642;2023-06-14T12:42:38;98160.41;;;24.04;36.46
20394;BME280;10356;50.544;9.642;2023-06-14T12:45:06;98162.19;;;24.30;34.88
20394;BME280;10356;50.544;9.642;2023-06-14T12:47:33;98172.19;;;24.61;36.33
20394;BME280;10356;50.544;9.642;2023-06-14T12:50:00;98162.72;;;24.84;34.91
20394;BME280;10356;50.544;9.642;2023-06-14T12:52:26;98170.13;;;24.82;35.07
20394;BME280;10356;50.544;9.642;2023-06-14T12:54:53;98159.03;;;24.79;35.06
20394;BME280;10356;50.544;9.642;2023-06-14T12:57:19;98160.31;;;24.57;35.43
20394;BME280;10356;50.544;9.642;2023-06-14T12:59:46;98160.34;;;24.50;35.11
20394;BME280;10356;50.544;9.642;2023-06-14T13:02:16;98152.13;;;25.09;34.85
20394;BME280;10356;50.544;9.642;2023-06-14T13:04:43;98155.56;;;25.23;33.70
20394;BME280;10356;50.544;9.642;2023-06-14T13:07:10;98149.28;;;25.48;32.38
20394;BME280;10356;50.544;9.642;2023-06-14T13:09:37;98150.88;;;26.12;33.85